MDT,Max TemperatureF,Mean TemperatureF,Min TemperatureF,Max Dew PointF,MeanDew PointF,Min DewpointF,Max Humidity, Mean Humidity, Min Humidity, Max Sea Level PressureIn, Mean Sea Level PressureIn, Min Sea Level PressureIn, Max VisibilityMiles, Mean VisibilityMiles, Min VisibilityMiles, Max Wind SpeedMPH, Mean Wind SpeedMPH, Max Gust SpeedMPH,PrecipitationIn, CloudCover, Events, WindDirDegrees
2013-10-1,61,46,30,37,32,25,89,63,38,30.06,29.94,29.85,10,10,10,15,7,,0.00,3,,192
2013-10-2,55,44,34,39,33,28,92,70,40,30.01,29.90,29.77,10,9,2,15,7,18,0.01,2,Rain,192
2013-10-3,39,34,30,36,30,25,100,87,56,30.06,29.94,29.70,10,6,0,16,8,16,0.13,7,Fog-Rain-Snow-Thunderstorm,329
2013-10-4,41,33,25,27,26,23,96,76,52,30.43,30.27,30.04,10,10,10,16,8,,0.01,3,,26
2013-10-5,48,34,19,28,22,16,92,69,36,30.52,30.46,30.41,10,10,10,8,4,,0.00,0,,14
2013-10-6,61,43,25,32,26,22,88,64,24,30.46,30.35,30.22,10,10,9,7,3,,0.00,0,,107
2013-10-7,66,46,27,33,26,20,85,51,21,30.19,29.97,29.78,10,10,6,16,5,24,0.00,0,,185
2013-10-8,50,38,27,30,25,22,84,55,35,29.87,29.78,29.72,10,10,8,16,8,,0.00,2,,171
2013-10-9,59,40,22,36,28,19,89,69,30,29.88,29.83,29.75,10,9,8,14,5,23,0.00,2,Rain,146
2013-10-10,55,44,32,40,36,30,96,80,44,29.84,29.70,29.56,10,7,0,16,6,,0.31,5,Rain,103
2013-10-11,45,38,30,37,29,23,93,72,41,30.07,29.93,29.71,10,9,7,12,4,,0.00,5,Rain,135
2013-10-12,46,36,27,35,29,23,89,72,50,30.07,30.01,29.96,10,9,7,15,5,22,0.00,4,,125
2013-10-13,45,38,32,43,36,30,100,94,74,30.06,29.99,29.88,9,4,1,15,5,23,0.34,8,Rain-Thunderstorm,11
2013-10-14,39,35,30,36,31,27,100,87,70,30.26,30.15,29.97,10,7,0,16,8,,0.02,7,Fog-Snow,331
2013-10-15,43,33,23,26,23,19,92,73,40,30.32,30.27,30.21,10,9,8,7,4,,0.00,0,,122
2013-10-16,45,32,20,27,24,17,91,71,44,30.25,30.17,30.10,10,9,8,9,4,,0.00,2,,150
2013-10-17,43,36,29,30,26,23,89,72,45,30.18,30.11,30.06,10,9,8,14,4,21,0.00,7,,330
2013-10-18,45,32,19,25,20,16,92,67,32,30.30,30.25,30.18,10,10,9,9,3,,0.00,0,,78
2013-10-19,52,38,24,30,25,20,85,61,35,30.23,30.13,29.99,10,9,4,12,6,,0.00,0,,148
2013-10-20,50,38,27,29,26,23,88,63,35,30.13,30.04,29.94,10,9,8,13,4,,0.00,3,,360
2013-10-21,55,39,23,29,26,19,85,66,34,30.27,30.20,30.13,10,10,8,10,4,,0.00,0,,79
2013-10-22,59,42,25,33,28,22,91,67,32,30.31,30.22,30.15,10,10,8,8,4,,0.00,0,,349
2013-10-23,63,44,25,31,26,20,81,59,25,30.25,30.16,30.08,10,10,9,9,2,,0.00,0,,64
2013-10-24,63,44,25,29,24,20,81,53,19,30.23,30.13,30.06,10,10,9,8,2,,0.00,0,,32
2013-10-25,63,44,25,29,24,19,81,56,24,30.32,30.21,30.12,10,9,7,10,2,,0.00,0,,356
2013-10-26,61,43,25,29,24,20,81,58,26,30.37,30.27,30.14,10,9,8,12,3,,0.00,0,,47
2013-10-27,57,42,28,27,23,20,75,51,23,30.11,29.85,29.60,10,9,8,13,6,16,0.00,0,,129
2013-10-28,52,42,32,35,31,20,100,73,35,29.84,29.68,29.48,10,6,1,17,7,23,0.05,6,Rain-Snow,129
2013-10-29,35,33,31,34,32,29,100,95,87,29.93,29.86,29.70,10,6,1,9,5,,0.26,7,Snow,120
2013-10-30,33,32,30,34,31,28,100,94,81,30.04,29.94,29.86,10,4,0,10,5,,0.00,8,Fog-Snow,161
2013-10-31,35,32,30,32,30,28,100,89,79,30.11,30.07,30.01,10,5,0,17,10,23,0.04,8,Fog-Snow,161